sensor_id;sensor_type;location;lat;lon;timestamp;P1;durP1;ratioP1;P2;durP2;ratioP2
8450;SDS011;4262;50.980;13.892;2023-11-19T00:01:01;21.57;;;12.20;;
8450;SDS011;4262;50.980;13.892;2023-11-19T00:03:30;29.33;;;16.30;;
8450;SDS011;4262;50.980;13.892;2023-11-19T00:06:00;23.00;;;14.27;;
8450;SDS011;4262;50.980;13.892;2023-11-19T00:08:27;24.00;;;15.30;;
8450;SDS011;4262;50.980;13.892;2023-11-19T00:10:54;26.47;;;14.60;;
8450;SDS011;4262;50.980;13.892;2023-11-19T00:13:21;28.83;;;15.83;;
8450;SDS011;4262;50.980;13.892;2023-11-19T00:15:48;22.37;;;13.10;;
8450;SDS011;4262;50.980;13.892;2023-11-19T00:18:15;25.03;;;12.73;;
8450;SDS011;4262;50.980;13.892;2023-11-19T00:20:42;20.70;;;11.83;;
8450;SDS011;4262;50.980;13.892;2023-11-19T00:23:11;19.23;;;12.73;;
8450;SDS011;4262;50.980;13.892;2023-11-19T00:25:38;22.50;;;12.60;;
8450;SDS011;4262;50.980;13.892;2023-11-19T00:28:05;20.03;;;11.70;;
8450;SDS011;4262;50.980;13.892;2023-11-19T00:30:32;21.73;;;12.90;;
8450;SDS011;4262;50.980;13.892;2023-11-19T00:32:59;20.30;;;11.57;;
8450;SDS011;4262;50.980;13.892;2023-11-19T00:35:26;18.27;;;10.43;;
8450;SDS011;4262;50.980;13.892;2023-11-19T00:37:53;21.90;;;13.17;;
8450;SDS011;4262;50.980;13.892;2023-11-19T00:40:21;18.93;;;11.50;;
8450;SDS011;4262;50.980;13.892;2023-11-19T00:42:49;21.03;;;12.70;;
8450;SDS011;4262;50.980;13.892;2023-11-19T00:45:16;18.60;;;10.67;;
8450;SDS011;4262;50.980;13.892;2023-11-19T00:47:43;18.00;;;10.10;;
8450;SDS011;4262;50.980;13.892;2023-11-19T00:50:10;16.23;;;11.13;;
8450;SDS011;4262;50.980;13.892;2023-11-19T00:52:38;17.53;;;11.20;;
8450;SDS011;4262;50.980;13.892;2023-11-19T00:55:06;17.13;;;10.23;;
8450;SDS011;4262;50.980;13.892;2023-11-19T00:57:34;15.33;;;9.50;;
8450;SDS011;4262;50.980;13.892;2023-11-19T01:00:02;15.27;;;9.90;;
8450;SDS011;4262;50.980;13.892;2023-11-19T01:02:34;17.97;;;10.17;;
8450;SDS011;4262;50.980;13.892;2023-11-19T01:05:01;16.73;;;10.17;;
8450;SDS011;4262;50.980;13.892;2023-11-19T01:07:28;13.73;;;8.23;;
8450;SDS011;4262;50.980;13.892;2023-11-19T01:09:55;17.33;;;10.60;;
8450;SDS011;4262;50.980;13.892;2023-11-19T01:12:23;15.50;;;10.10;;
8450;SDS011;4262;50.980;13.892;2023-11-19T01:14:51;17.43;;;9.63;;
8450;SDS011;4262;50.980;13.892;2023-11-19T01:17:18;14.80;;;9.20;;
8450;SDS011;4262;50.980;13.892;2023-11-19T01:19:45;16.67;;;10.67;;
8450;SDS011;4262;50.980;13.892;2023-11-19T01:22:12;15.80;;;10.57;;
8450;SDS011;4262;50.980;13.892;2023-11-19T01:24:38;15.30;;;10.13;;
8450;SDS011;4262;50.980;13.892;2023-11-19T01:27:05;16.90;;;10.27;;
8450;SDS011;4262;50.980;13.892;2023-11-19T01:29:32;13.87;;;8.97;;
8450;SDS011;4262;50.980;13.892;2023-11-19T01:32:00;13.90;;;9.10;;
8450;SDS011;4262;50.980;13.892;2023-11-19T01:34:27;16.87;;;9.57;;
8450;SDS011;4262;50.980;13.892;2023-11-19T01:36:54;14.20;;;8.50;;
8450;SDS011;4262;50.980;13.892;2023-11-19T01:39:21;15.90;;;9.33;;
8450;SDS011;4262;50.980;13.892;2023-11-19T01:41:48;14.27;;;8.60;;
8450;SDS011;4262;50.980;13.892;2023-11-19T01:44:15;15.30;;;9.50;;
8450;SDS011;4262;50.980;13.892;2023-11-19T01:46:43;15.33;;;8.37;;
8450;SDS011;4262;50.980;13.892;2023-11-19T01:49:14;16.50;;;9.43;;
8450;SDS011;4262;50.980;13.892;2023-11-19T01:51:42;14.27;;;9.17;;
8450;SDS011;4262;50.980;13.892;2023-11-19T01:54:09;12.70;;;7.63;;
8450;SDS011;4262;50.980;13.892;2023-11-19T01:56:37;8.50;;;5.27;;
8450;SDS011;4262;50.980;13.892;2023-11-19T01:59:07;12.60;;;7.70;;
8450;SDS011;4262;50.980;13.892;2023-11-19T02:01:39;15.10;;;7.00;;
8450;SDS011;4262;50.980;13.892;2023-11-19T02:04:06;13.13;;;7.60;;
8450;SDS011;4262;50.980;13.892;2023-11-19T02:06:36;10.90;;;7.23;;
8450;SDS011;4262;50.980;13.892;2023-11-19T02:09:07;13.00;;;7.53;;
8450;SDS011;4262;50.980;13.892;2023-11-19T02:11:35;12.13;;;7.00;;
8450;SDS011;4262;50.980;13.892;2023-11-19T02:14:03;10.90;;;7.00;;
8450;SDS011;4262;50.980;13.892;2023-11-19T02:16:30;13.87;;;6.47;;
8450;SDS011;4262;50.980;13.892;2023-11-19T02:18:57;14.10;;;5.80;;
8450;SDS011;4262;50.980;13.892;2023-11-19T02:21:24;10.50;;;6.17;;
8450;SDS011;4262;50.980;13.892;2023-11-19T02:23:52;9.33;;;5.00;;
8450;SDS011;4262;50.980;13.892;2023-11-19T02:26:23;9.80;;;6.17;;
8450;SDS011;4262;50.980;13.892;2023-11-19T02:28:56;7.70;;;4.20;;
8450;SDS011;4262;50.980;13.892;2023-11-19T02:31:23;8.50;;;5.37;;
8450;SDS011;4262;50.980;13.892;2023-11-19T02:33:53;8.53;;;5.00;;
8450;SDS011;4262;50.980;13.892;2023-11-19T02:36:20;13.33;;;5.30;;
8450;SDS011;4262;50.980;13.892;2023-11-19T02:38:48;6.80;;;3.90;;
8450;SDS011;4262;50.980;13.892;2023-11-19T02:41:15;8.27;;;4.43;;
8450;SDS011;4262;50.980;13.892;2023-11-19T02:43:42;8.47;;;5.07;;
8450;SDS011;4262;50.980;13.892;2023-11-19T02:46:10;8.83;;;5.27;;
8450;SDS011;4262;50.980;13.892;2023-11-19T02:48:37;9.77;;;4.60;;
8450;SDS011;4262;50.980;13.892;2023-11-19T02:51:05;9.00;;;4.10;;
8450;SDS011;4262;50.980;13.892;2023-11-19T02:53:34;7.77;;;4.70;;
8450;SDS011;4262;50.980;13.892;2023-11-19T02:56:02;6.70;;;4.10;;
8450;SDS011;4262;50.980;13.892;2023-11-19T02:58:42;7.63;;;4.30;;
8450;SDS011;4262;50.980;13.892;2023-11-19T03:01:12;8.10;;;4.70;;
8450;SDS011;4262;50.980;13.892;2023-11-19T03:03:48;7.50;;;4.13;;
8450;SDS011;4262;50.980;13.892;2023-11-19T03:06:19;7.40;;;4.37;;
8450;SDS011;4262;50.980;13.892;2023-11-19T03:08:47;8.60;;;4.00;;
8450;SDS011;4262;50.980;13.892;2023-11-19T03:11:14;7.47;;;3.70;;
8450;SDS011;4262;50.980;13.892;2023-11-19T03:13:41;6.17;;;3.40;;
8450;SDS011;4262;50.980;13.892;2023-11-19T03:16:08;7.10;;;3.77;;
8450;SDS011;4262;50.980;13.892;2023-11-19T03:18:38;8.67;;;4.10;;
8450;SDS011;4262;50.980;13.892;2023-11-19T03:21:06;8.97;;;4.80;;
8450;SDS011;4262;50.980;13.892;2023-11-19T03:23:34;9.00;;;4.80;;
8450;SDS011;4262;50.980;13.892;2023-11-19T03:26:01;8.93;;;4.60;;
8450;SDS011;4262;50.980;13.892;2023-11-19T03:28:31;7.93;;;4.40;;
8450;SDS011;4262;50.980;13.892;2023-11-19T03:30:59;8.00;;;4.73;;
8450;SDS011;4262;50.980;13.892;2023-11-19T03:33:26;7.40;;;4.60;;
8450;SDS011;4262;50.980;13.892;2023-11-19T03:35:55;7.70;;;4.77;;
8450;SDS011;4262;50.980;13.892;2023-11-19T03:38:23;9.23;;;5.50;;
8450;SDS011;4262;50.980;13.892;2023-11-19T03:40:49;8.57;;;5.20;;
8450;SDS011;4262;50.980;13.892;2023-11-19T03:43:17;9.63;;;6.57;;
8450;SDS011;4262;50.980;13.892;2023-11-19T03:45:44;10.33;;;5.97;;
8450;SDS011;4262;50.980;13.892;2023-11-19T03:48:11;10.23;;;5.83;;
8450;SDS011;4262;50.980;13.892;2023-11-19T03:50:38;10.20;;;5.90;;
8450;SDS011;4262;50.980;13.892;2023-11-19T03:53:07;10.53;;;6.00;;
8450;SDS011;4262;50.980;13.892;2023-11-19T03:55:34;10.67;;;6.40;;
8450;SDS011;4262;50.980;13.892;2023-11-19T03:58:01;9.47;;;5.77;;
8450;SDS011;4262;50.980;13.892;2023-11-19T04:00:28;8.20;;;4.80;;
8450;SDS011;4262;50.980;13.892;2023-11-19T04:02:55;9.10;;;5.70;;
8450;SDS011;4262;50.980;13.892;2023-11-19T04:05:22;11.50;;;5.47;;
8450;SDS011;4262;50.980;13.892;2023-11-19T04:07:48;9.80;;;5.60;;
8450;SDS011;4262;50.980;13.892;2023-11-19T04:10:17;9.17;;;5.23;;
8450;SDS011;4262;50.980;13.892;2023-11-19T04:12:44;9.17;;;5.80;;
8450;SDS011;4262;50.980;13.892;2023-11-19T04:15:11;9.13;;;5.70;;
8450;SDS011;4262;50.980;13.892;2023-11-19T04:17:38;8.53;;;5.00;;
8450;SDS011;4262;50.980;13.892;2023-11-19T04:20:06;11.80;;;5.43;;
8450;SDS011;4262;50.980;13.892;2023-11-19T04:22:36;9.67;;;5.57;;
8450;SDS011;4262;50.980;13.892;2023-11-19T04:25:03;11.27;;;6.03;;
8450;SDS011;4262;50.980;13.892;2023-11-19T04:27:32;10.40;;;6.07;;
8450;SDS011;4262;50.980;13.892;2023-11-19T04:29:59;8.97;;;5.57;;
8450;SDS011;4262;50.980;13.892;2023-11-19T04:32:27;9.87;;;5.40;;
8450;SDS011;4262;50.980;13.892;2023-11-19T04:34:54;13.37;;;7.00;;
8450;SDS011;4262;50.980;13.892;2023-11-19T04:37:21;8.23;;;4.83;;
8450;SDS011;4262;50.980;13.892;2023-11-19T04:39:48;9.20;;;5.50;;
8450;SDS011;4262;50.980;13.892;2023-11-19T04:42:16;10.73;;;6.57;;
8450;SDS011;4262;50.980;13.892;2023-11-19T04:44:44;9.60;;;6.23;;
8450;SDS011;4262;50.980;13.892;2023-11-19T04:47:11;8.53;;;5.37;;
8450;SDS011;4262;50.980;13.892;2023-11-19T04:49:39;10.30;;;5.60;;
8450;SDS011;4262;50.980;13.892;2023-11-19T04:52:08;16.70;;;6.67;;
8450;SDS011;4262;50.980;13.892;2023-11-19T04:54:40;10.90;;;6.23;;
8450;SDS011;4262;50.980;13.892;2023-11-19T04:57:07;9.63;;;5.93;;
8450;SDS011;4262;50.980;13.892;2023-11-19T04:59:36;11.13;;;6.67;;
8450;SDS011;4262;50.980;13.892;2023-11-19T05:02:04;9.87;;;5.77;;
8450;SDS011;4262;50.980;13.892;2023-11-19T05:04:31;9.30;;;5.80;;
8450;SDS011;4262;50.980;13.892;2023-11-19T05:06:58;12.43;;;6.20;;
8450;SDS011;4262;50.980;13.892;2023-11-19T05:09:24;14.70;;;7.37;;
8450;SDS011;4262;50.980;13.892;2023-11-19T05:11:51;10.20;;;6.67;;
8450;SDS011;4262;50.980;13.892;2023-11-19T05:14:19;10.93;;;7.40;;
8450;SDS011;4262;50.980;13.892;2023-11-19T05:16:47;11.77;;;7.73;;
8450;SDS011;4262;50.980;13.892;2023-11-19T05:19:15;15.40;;;7.80;;
8450;SDS011;4262;50.980;13.892;2023-11-19T05:21:42;13.10;;;7.60;;
8450;SDS011;4262;50.980;13.892;2023-11-19T05:24:09;15.83;;;7.67;;
8450;SDS011;4262;50.980;13.892;2023-11-19T05:26:37;15.93;;;8.40;;
8450;SDS011;4262;50.980;13.892;2023-11-19T05:29:05;15.53;;;8.50;;
8450;SDS011;4262;50.980;13.892;2023-11-19T05:31:31;12.10;;;7.07;;
8450;SDS011;4262;50.980;13.892;2023-11-19T05:33:58;15.63;;;7.90;;
8450;SDS011;4262;50.980;13.892;2023-11-19T05:36:27;13.23;;;7.03;;
8450;SDS011;4262;50.980;13.892;2023-11-19T05:38:54;12.60;;;7.80;;
8450;SDS011;4262;50.980;13.892;2023-11-19T05:41:21;12.37;;;7.40;;
8450;SDS011;4262;50.980;13.892;2023-11-19T05:43:48;16.30;;;8.07;;
8450;SDS011;4262;50.980;13.892;2023-11-19T05:46:15;12.83;;;8.03;;
8450;SDS011;4262;50.980;13.892;2023-11-19T05:48:42;16.03;;;9.17;;
8450;SDS011;4262;50.980;13.892;2023-11-19T05:51:11;14.57;;;9.70;;
8450;SDS011;4262;50.980;13.892;2023-11-19T05:53:39;14.90;;;9.07;;
8450;SDS011;4262;50.980;13.892;2023-11-19T05:56:06;12.47;;;7.50;;
8450;SDS011;4262;50.980;13.892;2023-11-19T05:58:34;13.87;;;8.57;;
8450;SDS011;4262;50.980;13.892;2023-11-19T06:01:02;13.30;;;8.40;;
8450;SDS011;4262;50.980;13.892;2023-11-19T06:03:33;13.80;;;7.97;;
8450;SDS011;4262;50.980;13.892;2023-11-19T06:05:59;12.40;;;7.37;;
8450;SDS011;4262;50.980;13.892;2023-11-19T06:08:26;13.10;;;7.27;;
8450;SDS011;4262;50.980;13.892;2023-11-19T06:10:54;13.53;;;7.93;;
8450;SDS011;4262;50.980;13.892;2023-11-19T06:13:21;12.07;;;7.53;;
8450;SDS011;4262;50.980;13.892;2023-11-19T06:15:49;12.90;;;7.30;;
8450;SDS011;4262;50.980;13.892;2023-11-19T06:18:16;10.80;;;6.70;;
8450;SDS011;4262;50.980;13.892;2023-11-19T06:20:45;11.00;;;6.50;;
8450;SDS011;4262;50.980;13.892;2023-11-19T06:23:12;10.47;;;6.23;;
8450;SDS011;4262;50.980;13.892;2023-11-19T06:25:39;11.23;;;6.30;;
8450;SDS011;4262;50.980;13.892;2023-11-19T06:28:07;11.10;;;7.13;;
8450;SDS011;4262;50.980;13.892;2023-11-19T06:30:35;12.03;;;7.53;;
8450;SDS011;4262;50.980;13.892;2023-11-19T06:33:02;10.90;;;6.43;;
8450;SDS011;4262;50.980;13.892;2023-11-19T06:35:29;11.80;;;6.57;;
8450;SDS011;4262;50.980;13.892;2023-11-19T06:38:01;8.90;;;5.50;;
8450;SDS011;4262;50.980;13.892;2023-11-19T06:40:29;10.03;;;5.70;;
8450;SDS011;4262;50.980;13.892;2023-11-19T06:42:56;10.93;;;6.43;;
8450;SDS011;4262;50.980;13.892;2023-11-19T06:45:24;9.50;;;5.77;;
8450;SDS011;4262;50.980;13.892;2023-11-19T06:47:51;10.60;;;5.20;;
8450;SDS011;4262;50.980;13.892;2023-11-19T06:50:18;10.60;;;4.87;;
8450;SDS011;4262;50.980;13.892;2023-11-19T06:52:45;10.20;;;4.87;;
8450;SDS011;4262;50.980;13.892;2023-11-19T06:55:13;9.30;;;4.70;;
8450;SDS011;4262;50.980;13.892;2023-11-19T06:57:40;8.90;;;5.23;;
8450;SDS011;4262;50.980;13.892;2023-11-19T07:00:07;9.33;;;4.90;;
8450;SDS011;4262;50.980;13.892;2023-11-19T07:02:37;10.90;;;5.50;;
8450;SDS011;4262;50.980;13.892;2023-11-19T07:05:04;10.03;;;4.30;;
8450;SDS011;4262;50.980;13.892;2023-11-19T07:07:31;10.03;;;5.30;;
8450;SDS011;4262;50.980;13.892;2023-11-19T07:09:59;8.30;;;3.57;;
8450;SDS011;4262;50.980;13.892;2023-11-19T07:12:26;8.67;;;5.37;;
8450;SDS011;4262;50.980;13.892;2023-11-19T07:14:53;8.63;;;5.10;;
8450;SDS011;4262;50.980;13.892;2023-11-19T07:17:20;13.83;;;5.40;;
8450;SDS011;4262;50.980;13.892;2023-11-19T07:19:50;12.53;;;5.30;;
8450;SDS011;4262;50.980;13.892;2023-11-19T07:22:17;10.10;;;5.33;;
8450;SDS011;4262;50.980;13.892;2023-11-19T07:24:43;9.47;;;5.27;;
8450;SDS011;4262;50.980;13.892;2023-11-19T07:27:10;11.07;;;5.30;;
8450;SDS011;4262;50.980;13.892;2023-11-19T07:29:38;10.07;;;5.93;;
8450;SDS011;4262;50.980;13.892;2023-11-19T07:32:04;9.00;;;5.10;;
8450;SDS011;4262;50.980;13.892;2023-11-19T07:34:33;10.17;;;5.70;;
8450;SDS011;4262;50.980;13.892;2023-11-19T07:37:02;9.57;;;5.40;;
8450;SDS011;4262;50.980;13.892;2023-11-19T07:39:29;9.03;;;5.10;;
8450;SDS011;4262;50.980;13.892;2023-11-19T07:41:56;8.90;;;5.30;;
8450;SDS011;4262;50.980;13.892;2023-11-19T07:44:23;7.73;;;4.87;;
8450;SDS011;4262;50.980;13.892;2023-11-19T07:46:51;9.17;;;4.70;;
8450;SDS011;4262;50.980;13.892;2023-11-19T07:49:18;7.90;;;4.73;;
8450;SDS011;4262;50.980;13.892;2023-11-19T07:51:45;8.80;;;5.17;;
8450;SDS011;4262;50.980;13.892;2023-11-19T07:54:13;8.53;;;5.10;;
8450;SDS011;4262;50.980;13.892;2023-11-19T07:56:40;9.50;;;5.80;;
8450;SDS011;4262;50.980;13.892;2023-11-19T07:59:07;8.37;;;5.00;;
8450;SDS011;4262;50.980;13.892;2023-11-19T08:01:34;8.73;;;4.83;;
8450;SDS011;4262;50.980;13.892;2023-11-19T08:04:01;10.30;;;6.10;;
8450;SDS011;4262;50.980;13.892;2023-11-19T08:06:28;9.20;;;5.20;;
8450;SDS011;4262;50.980;13.892;2023-11-19T08:08:55;8.20;;;4.90;;
8450;SDS011;4262;50.980;13.892;2023-11-19T08:11:23;10.40;;;5.23;;
8450;SDS011;4262;50.980;13.892;2023-11-19T08:13:50;8.10;;;4.80;;
8450;SDS011;4262;50.980;13.892;2023-11-19T08:16:17;8.90;;;5.33;;
8450;SDS011;4262;50.980;13.892;2023-11-19T08:18:44;8.80;;;4.77;;
8450;SDS011;4262;50.980;13.892;2023-11-19T08:21:11;9.07;;;5.63;;
8450;SDS011;4262;50.980;13.892;2023-11-19T08:23:39;9.13;;;5.10;;
8450;SDS011;4262;50.980;13.892;2023-11-19T08:26:06;10.27;;;4.80;;
8450;SDS011;4262;50.980;13.892;2023-11-19T08:28:34;10.93;;;5.60;;
8450;SDS011;4262;50.980;13.892;2023-11-19T08:31:01;10.77;;;5.90;;
8450;SDS011;4262;50.980;13.892;2023-11-19T08:33:29;9.10;;;5.13;;
8450;SDS011;4262;50.980;13.892;2023-11-19T08:35:56;11.43;;;5.50;;
8450;SDS011;4262;50.980;13.892;2023-11-19T08:38:24;9.93;;;5.17;;
8450;SDS011;4262;50.980;13.892;2023-11-19T08:40:51;9.87;;;5.70;;
8450;SDS011;4262;50.980;13.892;2023-11-19T08:43:18;9.83;;;5.90;;
8450;SDS011;4262;50.980;13.892;2023-11-19T08:45:46;11.13;;;5.40;;
8450;SDS011;4262;50.980;13.892;2023-11-19T08:48:13;7.60;;;4.37;;
8450;SDS011;4262;50.980;13.892;2023-11-19T08:50:40;8.50;;;5.07;;
8450;SDS011;4262;50.980;13.892;2023-11-19T08:53:07;8.80;;;5.73;;
8450;SDS011;4262;50.980;13.892;2023-11-19T08:55:34;10.83;;;5.53;;
8450;SDS011;4262;50.980;13.892;2023-11-19T08:58:02;7.70;;;3.83;;
8450;SDS011;4262;50.980;13.892;2023-11-19T09:00:29;7.53;;;4.20;;
8450;SDS011;4262;50.980;13.892;2023-11-19T09:02:59;7.27;;;4.03;;
8450;SDS011;4262;50.980;13.892;2023-11-19T09:05:26;27.43;;;6.23;;
8450;SDS011;4262;50.980;13.892;2023-11-19T09:07:53;7.30;;;4.50;;
8450;SDS011;4262;50.980;13.892;2023-11-19T09:10:20;11.90;;;5.30;;
8450;SDS011;4262;50.980;13.892;2023-11-19T09:12:47;7.63;;;4.30;;
8450;SDS011;4262;50.980;13.892;2023-11-19T09:15:13;10.20;;;4.50;;
8450;SDS011;4262;50.980;13.892;2023-11-19T09:17:41;8.37;;;4.80;;
8450;SDS011;4262;50.980;13.892;2023-11-19T09:20:10;7.50;;;4.43;;
8450;SDS011;4262;50.980;13.892;2023-11-19T09:22:40;8.50;;;4.50;;
8450;SDS011;4262;50.980;13.892;2023-11-19T09:25:07;8.47;;;4.70;;
8450;SDS011;4262;50.980;13.892;2023-11-19T09:27:34;7.00;;;3.53;;
8450;SDS011;4262;50.980;13.892;2023-11-19T09:30:01;7.67;;;3.87;;
8450;SDS011;4262;50.980;13.892;2023-11-19T09:32:29;7.37;;;3.90;;
8450;SDS011;4262;50.980;13.892;2023-11-19T09:34:56;7.67;;;4.27;;
8450;SDS011;4262;50.980;13.892;2023-11-19T09:37:24;8.40;;;4.20;;
8450;SDS011;4262;50.980;13.892;2023-11-19T09:39:50;8.00;;;4.60;;
8450;SDS011;4262;50.980;13.892;2023-11-19T09:42:18;7.90;;;3.83;;
8450;SDS011;4262;50.980;13.892;2023-11-19T09:44:46;12.60;;;5.20;;
8450;SDS011;4262;50.980;13.892;2023-11-19T09:47:14;9.50;;;4.30;;
8450;SDS011;4262;50.980;13.892;2023-11-19T09:49:43;9.30;;;4.83;;
8450;SDS011;4262;50.980;13.892;2023-11-19T09:52:10;8.73;;;4.23;;
8450;SDS011;4262;50.980;13.892;2023-11-19T09:54:39;10.47;;;4.67;;
8450;SDS011;4262;50.980;13.892;2023-11-19T09:57:06;9.77;;;4.90;;
8450;SDS011;4262;50.980;13.892;2023-11-19T09:59:35;8.87;;;5.00;;
8450;SDS011;4262;50.980;13.892;2023-11-19T10:02:05;10.10;;;5.70;;
8450;SDS011;4262;50.980;13.892;2023-11-19T10:04:33;9.30;;;4.90;;
8450;SDS011;4262;50.980;13.892;2023-11-19T10:07:02;7.90;;;4.33;;
8450;SDS011;4262;50.980;13.892;2023-11-19T10:09:29;9.20;;;5.10;;
8450;SDS011;4262;50.980;13.892;2023-11-19T10:11:57;12.47;;;5.60;;
8450;SDS011;4262;50.980;13.892;2023-11-19T10:14:24;9.90;;;5.70;;
8450;SDS011;4262;50.980;13.892;2023-11-19T10:16:51;9.93;;;5.13;;
8450;SDS011;4262;50.980;13.892;2023-11-19T10:19:18;8.27;;;4.37;;
8450;SDS011;4262;50.980;13.892;2023-11-19T10:21:45;9.20;;;4.67;;
8450;SDS011;4262;50.980;13.892;2023-11-19T10:24:12;9.47;;;5.03;;
8450;SDS011;4262;50.980;13.892;2023-11-19T10:26:39;11.23;;;5.87;;
8450;SDS011;4262;50.980;13.892;2023-11-19T10:29:09;10.80;;;4.70;;
8450;SDS011;4262;50.980;13.892;2023-11-19T10:31:39;9.47;;;5.07;;
8450;SDS011;4262;50.980;13.892;2023-11-19T10:34:10;10.30;;;6.30;;
8450;SDS011;4262;50.980;13.892;2023-11-19T10:36:50;10.60;;;5.93;;
8450;SDS011;4262;50.980;13.892;2023-11-19T10:39:17;10.03;;;5.17;;
8450;SDS011;4262;50.980;13.892;2023-11-19T10:41:46;9.30;;;5.37;;
8450;SDS011;4262;50.980;13.892;2023-11-19T10:44:27;12.93;;;5.50;;
8450;SDS011;4262;50.980;13.892;2023-11-19T10:46:59;8.60;;;4.70;;
8450;SDS011;4262;50.980;13.892;2023-11-19T10:49:26;9.37;;;4.97;;
8450;SDS011;4262;50.980;13.892;2023-11-19T10:51:53;12.10;;;5.10;;
8450;SDS011;4262;50.980;13.892;2023-11-19T10:54:22;16.17;;;5.80;;
8450;SDS011;4262;50.980;13.892;2023-11-19T10:56:51;9.47;;;3.97;;
8450;SDS011;4262;50.980;13.892;2023-11-19T10:59:21;10.60;;;3.83;;
8450;SDS011;4262;50.980;13.892;2023-11-19T11:01:53;12.63;;;3.30;;
8450;SDS011;4262;50.980;13.892;2023-11-19T11:04:22;9.23;;;3.00;;
8450;SDS011;4262;50.980;13.892;2023-11-19T11:06:50;9.80;;;2.20;;
8450;SDS011;4262;50.980;13.892;2023-11-19T11:09:20;6.43;;;2.27;;
8450;SDS011;4262;50.980;13.892;2023-11-19T11:11:47;10.13;;;2.20;;
8450;SDS011;4262;50.980;13.892;2023-11-19T11:14:17;10.80;;;2.53;;
8450;SDS011;4262;50.980;13.892;2023-11-19T11:16:47;9.00;;;1.90;;
8450;SDS011;4262;50.980;13.892;2023-11-19T11:19:16;7.07;;;1.80;;
8450;SDS011;4262;50.980;13.892;2023-11-19T11:21:49;9.70;;;2.23;;
8450;SDS011;4262;50.980;13.892;2023-11-19T11:24:25;6.17;;;1.50;;
8450;SDS011;4262;50.980;13.892;2023-11-19T11:27:16;6.33;;;2.17;;
8450;SDS011;4262;50.980;13.892;2023-11-19T11:29:58;7.30;;;2.23;;
8450;SDS011;4262;50.980;13.892;2023-11-19T11:32:35;7.23;;;1.90;;
8450;SDS011;4262;50.980;13.892;2023-11-19T11:35:22;9.10;;;1.60;;
8450;SDS011;4262;50.980;13.892;2023-11-19T11:37:59;7.00;;;2.63;;
8450;SDS011;4262;50.980;13.892;2023-11-19T11:40:28;10.10;;;2.03;;
8450;SDS011;4262;50.980;13.892;2023-11-19T11:42:55;7.80;;;2.20;;
8450;SDS011;4262;50.980;13.892;2023-11-19T11:45:34;9.97;;;2.83;;
8450;SDS011;4262;50.980;13.892;2023-11-19T11:48:12;11.00;;;2.30;;
8450;SDS011;4262;50.980;13.892;2023-11-19T11:53:30;7.80;;;2.20;;
8450;SDS011;4262;50.980;13.892;2023-11-19T11:56:02;9.53;;;2.20;;
8450;SDS011;4262;50.980;13.892;2023-11-19T11:58:32;7.67;;;2.13;;
8450;SDS011;4262;50.980;13.892;2023-11-19T12:01:03;8.20;;;1.97;;
8450;SDS011;4262;50.980;13.892;2023-11-19T12:03:37;9.97;;;2.30;;
8450;SDS011;4262;50.980;13.892;2023-11-19T12:06:06;8.23;;;2.63;;
8450;SDS011;4262;50.980;13.892;2023-11-19T12:08:34;9.70;;;2.40;;
8450;SDS011;4262;50.980;13.892;2023-11-19T12:11:01;14.13;;;2.93;;
8450;SDS011;4262;50.980;13.892;2023-11-19T12:13:42;15.17;;;2.50;;
8450;SDS011;4262;50.980;13.892;2023-11-19T12:16:13;9.23;;;2.17;;
8450;SDS011;4262;50.980;13.892;2023-11-19T12:18:40;10.60;;;2.17;;
8450;SDS011;4262;50.980;13.892;2023-11-19T12:21:11;12.03;;;2.47;;
8450;SDS011;4262;50.980;13.892;2023-11-19T12:23:54;12.90;;;2.93;;
8450;SDS011;4262;50.980;13.892;2023-11-19T12:26:31;15.20;;;3.53;;
8450;SDS011;4262;50.980;13.892;2023-11-19T12:29:00;15.50;;;2.93;;
8450;SDS011;4262;50.980;13.892;2023-11-19T12:31:29;9.97;;;2.43;;
8450;SDS011;4262;50.980;13.892;2023-11-19T12:33:57;16.10;;;2.67;;
8450;SDS011;4262;50.980;13.892;2023-11-19T12:36:26;10.57;;;2.00;;
8450;SDS011;4262;50.980;13.892;2023-11-19T12:38:53;13.53;;;2.70;;
8450;SDS011;4262;50.980;13.892;2023-11-19T12:41:20;12.30;;;2.90;;
8450;SDS011;4262;50.980;13.892;2023-11-19T12:43:49;13.00;;;2.63;;
8450;SDS011;4262;50.980;13.892;2023-11-19T12:46:19;15.93;;;3.03;;
8450;SDS011;4262;50.980;13.892;2023-11-19T12:48:47;12.57;;;2.50;;
8450;SDS011;4262;50.980;13.892;2023-11-19T12:51:14;13.33;;;2.40;;
8450;SDS011;4262;50.980;13.892;2023-11-19T12:53:49;11.43;;;2.60;;
8450;SDS011;4262;50.980;13.892;2023-11-19T12:56:19;16.93;;;3.30;;
8450;SDS011;4262;50.980;13.892;2023-11-19T12:58:48;14.13;;;2.30;;
8450;SDS011;4262;50.980;13.892;2023-11-19T13:01:16;10.53;;;2.53;;
8450;SDS011;4262;50.980;13.892;2023-11-19T13:03:44;12.70;;;2.43;;
8450;SDS011;4262;50.980;13.892;2023-11-19T13:06:11;15.77;;;2.50;;
8450;SDS011;4262;50.980;13.892;2023-11-19T13:08:40;17.43;;;2.47;;
8450;SDS011;4262;50.980;13.892;2023-11-19T13:11:09;14.50;;;2.17;;
8450;SDS011;4262;50.980;13.892;2023-11-19T13:13:54;19.63;;;2.90;;
8450;SDS011;4262;50.980;13.892;2023-11-19T13:16:22;14.60;;;3.40;;
8450;SDS011;4262;50.980;13.892;2023-11-19T13:18:49;16.07;;;2.80;;
8450;SDS011;4262;50.980;13.892;2023-11-19T13:21:17;13.27;;;2.70;;
8450;SDS011;4262;50.980;13.892;2023-11-19T13:23:45;16.90;;;2.97;;
8450;SDS011;4262;50.980;13.892;2023-11-19T13:26:13;12.80;;;2.80;;
8450;SDS011;4262;50.980;13.892;2023-11-19T13:28:40;18.30;;;2.97;;
8450;SDS011;4262;50.980;13.892;2023-11-19T13:31:07;16.60;;;2.70;;
8450;SDS011;4262;50.980;13.892;2023-11-19T13:33:35;12.37;;;2.63;;
8450;SDS011;4262;50.980;13.892;2023-11-19T13:36:03;16.63;;;2.47;;
8450;SDS011;4262;50.980;13.892;2023-11-19T13:38:32;13.80;;;3.30;;
8450;SDS011;4262;50.980;13.892;2023-11-19T13:40:59;14.40;;;3.63;;
8450;SDS011;4262;50.980;13.892;2023-11-19T13:43:28;20.43;;;3.60;;
8450;SDS011;4262;50.980;13.892;2023-11-19T13:45:54;14.17;;;2.70;;
8450;SDS011;4262;50.980;13.892;2023-11-19T13:48:23;13.07;;;3.57;;
8450;SDS011;4262;50.980;13.892;2023-11-19T13:50:52;16.03;;;3.03;;
8450;SDS011;4262;50.980;13.892;2023-11-19T13:53:19;16.13;;;3.27;;
8450;SDS011;4262;50.980;13.892;2023-11-19T13:55:46;16.50;;;3.43;;
8450;SDS011;4262;50.980;13.892;2023-11-19T13:58:13;13.70;;;2.80;;
8450;SDS011;4262;50.980;13.892;2023-11-19T14:00:42;14.57;;;4.20;;
8450;SDS011;4262;50.980;13.892;2023-11-19T14:03:09;15.57;;;3.43;;
8450;SDS011;4262;50.980;13.892;2023-11-19T14:05:37;14.03;;;3.33;;
8450;SDS011;4262;50.980;13.892;2023-11-19T14:08:04;14.23;;;3.30;;
8450;SDS011;4262;50.980;13.892;2023-11-19T14:10:37;13.67;;;2.73;;
8450;SDS011;4262;50.980;13.892;2023-11-19T14:13:05;15.10;;;3.47;;
8450;SDS011;4262;50.980;13.892;2023-11-19T14:15:32;23.90;;;3.57;;
8450;SDS011;4262;50.980;13.892;2023-11-19T14:18:01;17.90;;;4.20;;
8450;SDS011;4262;50.980;13.892;2023-11-19T14:20:28;16.97;;;3.93;;
8450;SDS011;4262;50.980;13.892;2023-11-19T14:22:55;13.77;;;3.23;;
8450;SDS011;4262;50.980;13.892;2023-11-19T14:25:22;19.50;;;3.70;;
8450;SDS011;4262;50.980;13.892;2023-11-19T14:27:49;18.30;;;3.47;;
8450;SDS011;4262;50.980;13.892;2023-11-19T14:30:16;16.00;;;3.07;;
8450;SDS011;4262;50.980;13.892;2023-11-19T14:32:43;19.30;;;3.27;;
8450;SDS011;4262;50.980;13.892;2023-11-19T14:35:12;25.30;;;3.20;;
8450;SDS011;4262;50.980;13.892;2023-11-19T14:37:39;18.10;;;3.23;;
8450;SDS011;4262;50.980;13.892;2023-11-19T14:40:10;20.70;;;3.70;;
8450;SDS011;4262;50.980;13.892;2023-11-19T14:42:37;16.97;;;3.33;;
8450;SDS011;4262;50.980;13.892;2023-11-19T14:45:05;12.97;;;2.90;;
8450;SDS011;4262;50.980;13.892;2023-11-19T14:47:37;13.87;;;3.30;;
8450;SDS011;4262;50.980;13.892;2023-11-19T14:50:04;13.23;;;3.20;;
8450;SDS011;4262;50.980;13.892;2023-11-19T14:52:33;20.17;;;3.50;;
8450;SDS011;4262;50.980;13.892;2023-11-19T14:55:01;15.53;;;4.10;;
8450;SDS011;4262;50.980;13.892;2023-11-19T14:57:28;16.27;;;3.70;;
8450;SDS011;4262;50.980;13.892;2023-11-19T14:59:55;16.00;;;3.33;;
8450;SDS011;4262;50.980;13.892;2023-11-19T15:02:22;16.20;;;3.30;;